Time;durP1;ratioP1;P1;durP2;ratioP2;P2;SDS_P1;SDS_P2;PMS_P1;PMS_P2;Temp;Humidity;BMP_temperature;BMP_pressure;BME280_temperature;BME280_humidity;BME280_pressure;Samples;Min_cycle;Max_cycle;Signal;HPM_P1;HPM_P2
2021/12/14 00:01:11;;;;;;;305.33;108.70;;;;;;;;;;6203167;28;19921;-60
2021/12/14 00:04:29;;;;;;;292.17;109.30;;;;;;;;;;6205741;28;20141;-62
2021/12/14 00:07:49;;;;;;;273.25;105.30;;;;;;;;;;6200988;28;20042;-61
2021/12/14 00:14:24;;;;;;;271.45;104.40;;;;;;;;;;6202086;28;20145;-61
2021/12/14 00:17:30;;;;;;;271.45;101.88;;;;;;;;;;6201103;28;20187;-61
2021/12/14 00:20:40;;;;;;;266.70;100.72;;;;;;;;;;6204596;28;20050;-61
2021/12/14 00:27:04;;;;;;;273.23;98.70;;;;;;;;;;6207225;28;20464;-61
2021/12/14 00:30:07;;;;;;;259.92;97.05;;;;;;;;;;6213441;28;20501;-62
2021/12/14 00:33:31;;;;;;;259.13;96.47;;;;;;;;;;6215826;28;20477;-61
2021/12/14 00:36:32;;;;;;;270.40;102.38;;;;;;;;;;6216389;28;20760;-61
2021/12/14 00:39:33;;;;;;;266.20;104.15;;;;;;;;;;6213242;28;20064;-61
2021/12/14 00:42:35;;;;;;;270.90;103.40;;;;;;;;;;6208865;28;20085;-61
2021/12/14 00:45:40;;;;;;;259.70;99.53;;;;;;;;;;6195111;28;20054;-61
2021/12/14 00:48:42;;;;;;;289.20;106.95;;;;;;;;;;6195452;28;20701;-61
2021/12/14 00:51:43;;;;;;;279.77;105.40;;;;;;;;;;6198209;28;20074;-61
2021/12/14 00:54:44;;;;;;;275.17;101.72;;;;;;;;;;6193163;28;20517;-62
2021/12/14 00:57:45;;;;;;;271.15;97.82;;;;;;;;;;6192276;28;20064;-61
2021/12/14 01:00:57;;;;;;;269.33;101.93;;;;;;;;;;6196699;28;20089;-61
2021/12/14 01:04:02;;;;;;;259.02;98.75;;;;;;;;;;6190962;28;20100;-61
2021/12/14 01:07:04;;;;;;;273.95;100.38;;;;;;;;;;6205650;28;20074;-61
2021/12/14 01:10:21;;;;;;;267.17;100.03;;;;;;;;;;6201475;28;20043;-61
2021/12/14 01:13:26;;;;;;;272.83;101.35;;;;;;;;;;6204713;28;20121;-61
2021/12/14 01:16:36;;;;;;;280.02;101.97;;;;;;;;;;6200831;28;20038;-61
2021/12/14 01:19:43;;;;;;;285.00;101.53;;;;;;;;;;6203851;28;20046;-61
2021/12/14 01:22:46;;;;;;;271.42;101.10;;;;;;;;;;6206752;28;20152;-61
2021/12/14 01:25:53;;;;;;;294.73;105.60;;;;;;;;;;6214954;28;20050;-61
2021/12/14 01:28:53;;;;;;;275.10;102.00;;;;;;;;;;6213833;28;20157;-61
2021/12/14 01:31:59;;;;;;;266.60;97.93;;;;;;;;;;6196629;28;20081;-61
2021/12/14 01:35:01;;;;;;;285.98;100.95;;;;;;;;;;6202443;28;20053;-61
2021/12/14 01:38:17;;;;;;;271.98;100.40;;;;;;;;;;6195755;28;20108;-60
2021/12/14 01:41:18;;;;;;;261.92;99.32;;;;;;;;;;6206086;28;20134;-61
2021/12/14 01:44:20;;;;;;;274.40;102.03;;;;;;;;;;6206660;28;20049;-61
2021/12/14 01:47:26;;;;;;;279.30;104.32;;;;;;;;;;6215126;28;20057;-61
2021/12/14 01:50:35;;;;;;;282.52;103.15;;;;;;;;;;6215614;28;20477;-61
2021/12/14 01:53:54;;;;;;;285.35;104.47;;;;;;;;;;6210725;28;20139;-60
2021/12/14 01:56:55;;;;;;;298.25;106.03;;;;;;;;;;6193914;28;20124;-59
2021/12/14 01:59:58;;;;;;;288.13;102.40;;;;;;;;;;6213521;28;20050;-59
2021/12/14 02:03:05;;;;;;;287.63;105.18;;;;;;;;;;6204137;28;20112;-61
2021/12/14 02:06:06;;;;;;;308.85;106.20;;;;;;;;;;6201474;28;20061;-59
2021/12/14 02:09:12;;;;;;;295.95;106.05;;;;;;;;;;6220591;28;20049;-61
2021/12/14 02:12:17;;;;;;;273.38;100.55;;;;;;;;;;6217163;28;20192;-59
2021/12/14 02:15:25;;;;;;;294.52;103.45;;;;;;;;;;6213444;28;20064;-59
2021/12/14 02:18:28;;;;;;;292.27;105.80;;;;;;;;;;6218282;28;20053;-59
2021/12/14 02:21:29;;;;;;;299.00;102.03;;;;;;;;;;6216798;28;20625;-62
2021/12/14 02:24:31;;;;;;;286.80;104.45;;;;;;;;;;6215635;28;20691;-60
2021/12/14 02:27:41;;;;;;;283.75;100.93;;;;;;;;;;6211809;28;20054;-59
2021/12/14 02:30:42;;;;;;;295.85;107.00;;;;;;;;;;6216165;28;20069;-61
2021/12/14 02:33:48;;;;;;;300.57;103.00;;;;;;;;;;6218888;28;20073;-61
2021/12/14 02:36:49;;;;;;;280.67;101.07;;;;;;;;;;6212406;28;20393;-61
2021/12/14 02:40:03;;;;;;;278.70;103.00;;;;;;;;;;6212514;28;20507;-61
2021/12/14 02:43:04;;;;;;;270.52;97.85;;;;;;;;;;6215799;28;20099;-61
2021/12/14 02:46:11;;;;;;;280.55;98.82;;;;;;;;;;6215698;28;20058;-62
2021/12/14 02:49:15;;;;;;;285.60;103.43;;;;;;;;;;6215544;28;20053;-61
2021/12/14 02:52:27;;;;;;;278.67;102.03;;;;;;;;;;6211586;28;20607;-62
2021/12/14 02:55:28;;;;;;;269.33;97.38;;;;;;;;;;6206094;28;20046;-61
2021/12/14 02:58:29;;;;;;;272.75;97.63;;;;;;;;;;6201321;28;20037;-61
2021/12/14 03:01:30;;;;;;;270.63;94.97;;;;;;;;;;6202790;28;20081;-62
2021/12/14 03:04:36;;;;;;;253.32;93.97;;;;;;;;;;6203339;28;20048;-60
2021/12/14 03:07:43;;;;;;;258.92;93.10;;;;;;;;;;6210125;28;20046;-61
2021/12/14 03:11:09;;;;;;;239.95;89.75;;;;;;;;;;6205082;28;20045;-61
2021/12/14 03:14:10;;;;;;;254.52;92.47;;;;;;;;;;6211197;28;20421;-61
2021/12/14 03:17:11;;;;;;;278.02;96.45;;;;;;;;;;6216395;28;20053;-60
2021/12/14 03:20:21;;;;;;;245.88;89.75;;;;;;;;;;6211472;28;20138;-62
2021/12/14 03:23:43;;;;;;;249.43;94.82;;;;;;;;;;6214661;28;20057;-61
2021/12/14 03:26:48;;;;;;;260.92;91.47;;;;;;;;;;6217831;28;20050;-61
2021/12/14 03:29:49;;;;;;;266.42;94.43;;;;;;;;;;6215482;28;20069;-61
2021/12/14 03:32:51;;;;;;;288.38;99.50;;;;;;;;;;6206640;28;20283;-61
2021/12/14 03:36:00;;;;;;;275.05;100.18;;;;;;;;;;6200238;28;20390;-61
2021/12/14 03:39:23;;;;;;;260.02;94.82;;;;;;;;;;6202142;28;20133;-61
2021/12/14 03:42:36;;;;;;;255.75;94.55;;;;;;;;;;6199294;28;20088;-62
2021/12/14 03:45:37;;;;;;;269.27;98.72;;;;;;;;;;6203983;28;20140;-61
2021/12/14 03:48:40;;;;;;;276.27;95.97;;;;;;;;;;6200459;28;20462;-61
2021/12/14 03:51:41;;;;;;;290.17;98.20;;;;;;;;;;6204954;28;20485;-61
2021/12/14 03:54:42;;;;;;;324.15;98.32;;;;;;;;;;6198300;28;20046;-61
2021/12/14 03:57:42;;;;;;;285.63;96.65;;;;;;;;;;6202692;28;20057;-61
2021/12/14 04:00:56;;;;;;;272.08;94.97;;;;;;;;;;6212740;28;20076;-62
2021/12/14 04:04:11;;;;;;;286.45;95.65;;;;;;;;;;6209668;28;20050;-60
2021/12/14 04:07:14;;;;;;;285.10;97.57;;;;;;;;;;6203515;28;20064;-60
2021/12/14 04:10:20;;;;;;;276.77;94.88;;;;;;;;;;6201948;28;21022;-62
2021/12/14 04:13:25;;;;;;;259.35;93.10;;;;;;;;;;6203614;28;20688;-59
2021/12/14 04:16:26;;;;;;;269.02;91.78;;;;;;;;;;6200444;28;20053;-61
2021/12/14 04:19:29;;;;;;;269.92;91.80;;;;;;;;;;6205651;28;20053;-61
2021/12/14 04:22:32;;;;;;;249.85;90.57;;;;;;;;;;6205391;28;20054;-61
2021/12/14 04:25:34;;;;;;;253.95;89.28;;;;;;;;;;6198235;28;20761;-61
2021/12/14 04:28:41;;;;;;;252.65;88.93;;;;;;;;;;6200152;28;20664;-61
2021/12/14 04:31:45;;;;;;;257.33;86.00;;;;;;;;;;6198167;28;20258;-61
2021/12/14 04:34:46;;;;;;;251.50;87.20;;;;;;;;;;6207502;28;20049;-61
2021/12/14 04:37:55;;;;;;;245.27;86.22;;;;;;;;;;6197410;28;20100;-61
2021/12/14 04:54:12;;;;;;;234.02;82.35;;;;;;;;;;6200143;28;20049;-62
2021/12/14 04:57:44;;;;;;;250.80;89.40;;;;;;;;;;6204803;28;20243;-62
2021/12/14 05:00:48;;;;;;;270.98;93.32;;;;;;;;;;6199776;28;20046;-61
2021/12/14 05:04:00;;;;;;;257.67;91.18;;;;;;;;;;6201459;28;20050;-60
2021/12/14 05:07:26;;;;;;;;;;;;;;;;;;6207692;28;20430;-60
2021/12/14 05:10:25;;;;;;;230.10;78.50;;;;;;;;;;6203181;28;19929;-60
2021/12/14 05:13:29;;;;;;;227.13;77.13;;;;;;;;;;6201828;28;20042;-60
2021/12/14 05:16:30;;;;;;;246.05;86.20;;;;;;;;;;6205050;28;20046;-60
2021/12/14 05:19:34;;;;;;;280.77;92.10;;;;;;;;;;6201128;28;20477;-60
2021/12/14 05:22:37;;;;;;;257.60;84.32;;;;;;;;;;6197787;28;20054;-60
2021/12/14 05:25:39;;;;;;;246.75;86.72;;;;;;;;;;6198790;28;20493;-59
2021/12/14 05:28:42;;;;;;;244.00;86.03;;;;;;;;;;6205505;28;20632;-60
2021/12/14 05:31:49;;;;;;;255.20;83.90;;;;;;;;;;6200467;28;20125;-59
2021/12/14 05:34:50;;;;;;;237.82;84.55;;;;;;;;;;6206829;28;20473;-60
2021/12/14 05:37:53;;;;;;;239.88;82.63;;;;;;;;;;6210725;28;20086;-59
2021/12/14 05:43:57;;;;;;;270.38;86.88;;;;;;;;;;6210530;28;20057;-59
2021/12/14 05:47:02;;;;;;;255.63;88.97;;;;;;;;;;6203804;28;20396;-62
2021/12/14 05:50:03;;;;;;;264.38;89.57;;;;;;;;;;6206011;28;20491;-59
2021/12/14 05:53:05;;;;;;;266.77;90.72;;;;;;;;;;6203911;28;20100;-60
2021/12/14 05:56:15;;;;;;;284.08;95.90;;;;;;;;;;6206814;28;20059;-60
2021/12/14 05:59:27;;;;;;;293.38;93.13;;;;;;;;;;6201534;28;20477;-62
2021/12/14 06:02:27;;;;;;;271.52;90.10;;;;;;;;;;6205452;28;20145;-59
2021/12/14 06:05:30;;;;;;;278.45;90.10;;;;;;;;;;6215020;28;20604;-62
2021/12/14 06:08:34;;;;;;;241.40;87.05;;;;;;;;;;6217741;28;20085;-61
2021/12/14 06:11:36;;;;;;;241.70;87.43;;;;;;;;;;6219860;28;20071;-61
2021/12/14 06:14:42;;;;;;;309.47;93.40;;;;;;;;;;6217628;28;20499;-60
2021/12/14 06:17:44;;;;;;;312.42;90.63;;;;;;;;;;6203440;28;20053;-61
2021/12/14 06:20:44;;;;;;;254.90;88.10;;;;;;;;;;6204517;28;20042;-61
2021/12/14 06:23:45;;;;;;;249.75;88.65;;;;;;;;;;6206864;28;20157;-61
2021/12/14 06:26:50;;;;;;;270.55;92.28;;;;;;;;;;6201745;28;20050;-61
2021/12/14 06:29:54;;;;;;;282.70;99.82;;;;;;;;;;6208686;28;20646;-61
2021/12/14 06:33:04;;;;;;;286.92;95.65;;;;;;;;;;6206579;28;20049;-60
2021/12/14 06:36:30;;;;;;;277.08;90.07;;;;;;;;;;6209458;28;20128;-61
2021/12/14 06:40:08;;;;;;;245.10;87.72;;;;;;;;;;6202193;28;20208;-61
2021/12/14 06:43:16;;;;;;;261.70;90.18;;;;;;;;;;6201146;28;20047;-62
2021/12/14 06:46:21;;;;;;;222.43;83.72;;;;;;;;;;6201297;28;20069;-61
2021/12/14 06:49:22;;;;;;;244.43;81.78;;;;;;;;;;6207209;28;20057;-61
2021/12/14 06:52:23;;;;;;;219.68;80.00;;;;;;;;;;6202962;28;20496;-61
2021/12/14 06:55:26;;;;;;;229.93;80.53;;;;;;;;;;6208882;28;20043;-62
2021/12/14 06:58:35;;;;;;;238.98;82.90;;;;;;;;;;6207269;28;20485;-61
2021/12/14 07:01:43;;;;;;;202.48;77.35;;;;;;;;;;6210968;28;20092;-60
2021/12/14 07:04:48;;;;;;;217.15;79.88;;;;;;;;;;6203874;28;20042;-61
2021/12/14 07:07:49;;;;;;;225.18;80.43;;;;;;;;;;6210424;28;20052;-61
2021/12/14 07:10:50;;;;;;;225.02;80.22;;;;;;;;;;6200774;28;20046;-61
2021/12/14 07:13:52;;;;;;;223.57;79.78;;;;;;;;;;6215845;28;20045;-60
2021/12/14 07:17:10;;;;;;;234.43;84.78;;;;;;;;;;6202551;28;20050;-60
2021/12/14 07:20:11;;;;;;;227.57;78.72;;;;;;;;;;6215646;28;20049;-61
2021/12/14 07:23:46;;;;;;;219.82;79.38;;;;;;;;;;6216581;28;20136;-60
2021/12/14 07:26:49;;;;;;;217.63;75.47;;;;;;;;;;6198217;28;20566;-61
2021/12/14 07:29:52;;;;;;;209.55;77.43;;;;;;;;;;6204055;28;20046;-60
2021/12/14 07:33:26;;;;;;;250.57;84.00;;;;;;;;;;6207425;28;20444;-61
2021/12/14 07:36:31;;;;;;;259.58;85.07;;;;;;;;;;6209725;28;20049;-60
2021/12/14 07:39:32;;;;;;;237.70;84.85;;;;;;;;;;6202516;28;20054;-61
2021/12/14 07:42:32;;;;;;;249.63;87.90;;;;;;;;;;6208259;28;20100;-61
2021/12/14 07:45:33;;;;;;;270.08;93.93;;;;;;;;;;6203428;28;20054;-60
2021/12/14 07:48:50;;;;;;;299.05;100.15;;;;;;;;;;6196694;28;20053;-61
2021/12/14 07:51:56;;;;;;;266.38;92.53;;;;;;;;;;6204022;28;20766;-61
2021/12/14 07:55:05;;;;;;;269.55;91.85;;;;;;;;;;6200570;28;20481;-60
2021/12/14 07:58:06;;;;;;;279.60;93.32;;;;;;;;;;6199569;28;20046;-61
2021/12/14 08:01:08;;;;;;;263.38;91.63;;;;;;;;;;6205448;28;20077;-60
2021/12/14 08:04:11;;;;;;;269.27;89.35;;;;;;;;;;6202988;28;20088;-61
2021/12/14 08:07:27;;;;;;;246.85;87.63;;;;;;;;;;6206266;28;20692;-61
2021/12/14 08:10:37;;;;;;;248.50;88.55;;;;;;;;;;6205545;28;20401;-61
2021/12/14 08:13:49;;;;;;;235.82;79.55;;;;;;;;;;6205461;28;20473;-61
2021/12/14 08:17:09;;;;;;;230.55;83.03;;;;;;;;;;6204448;28;20501;-60
2021/12/14 08:20:19;;;;;;;219.55;80.03;;;;;;;;;;6197401;28;20058;-63
2021/12/14 08:23:25;;;;;;;209.35;78.10;;;;;;;;;;6205132;28;20062;-61
2021/12/14 08:26:33;;;;;;;206.80;74.30;;;;;;;;;;6209510;28;20422;-61
2021/12/14 08:29:36;;;;;;;219.82;80.90;;;;;;;;;;6215423;28;20066;-61
2021/12/14 08:32:39;;;;;;;212.85;76.88;;;;;;;;;;6216064;28;20099;-61
2021/12/14 08:35:43;;;;;;;235.35;77.50;;;;;;;;;;6216550;28;20042;-60
2021/12/14 08:38:44;;;;;;;204.85;75.53;;;;;;;;;;6215276;28;20095;-61
2021/12/14 08:41:53;;;;;;;195.80;73.72;;;;;;;;;;6213853;28;20045;-60
2021/12/14 08:44:57;;;;;;;189.70;71.93;;;;;;;;;;6216153;28;20136;-60
2021/12/14 08:48:09;;;;;;;196.90;72.93;;;;;;;;;;6213477;28;20145;-61
2021/12/14 08:51:23;;;;;;;250.82;95.35;;;;;;;;;;6209190;28;20057;-61
2021/12/14 08:54:30;;;;;;;253.40;99.30;;;;;;;;;;6213491;28;20046;-61
2021/12/14 08:57:31;;;;;;;269.90;105.85;;;;;;;;;;6212735;28;20045;-61
2021/12/14 09:00:38;;;;;;;246.35;91.43;;;;;;;;;;6198526;28;20462;-61
2021/12/14 09:03:50;;;;;;;238.50;87.18;;;;;;;;;;6205951;28;20065;-60
2021/12/14 09:06:53;;;;;;;;;;;;;;;;;;6209695;28;20054;-60
2021/12/14 09:09:55;;;;;;;225.18;83.47;;;;;;;;;;6212072;28;20024;-60
2021/12/14 09:13:03;;;;;;;247.25;92.55;;;;;;;;;;6213632;28;20408;-60
2021/12/14 09:16:14;;;;;;;232.18;90.93;;;;;;;;;;6222315;28;20126;-60
2021/12/14 09:19:40;;;;;;;430.02;227.07;;;;;;;;;;6209561;28;20133;-61
2021/12/14 09:22:47;;;;;;;295.40;140.88;;;;;;;;;;6216783;28;20343;-59
2021/12/14 09:25:49;;;;;;;228.90;99.18;;;;;;;;;;6210076;28;20054;-61
2021/12/14 09:28:50;;;;;;;242.48;112.68;;;;;;;;;;6216961;28;20496;-61
2021/12/14 09:31:54;;;;;;;227.87;99.23;;;;;;;;;;6220323;28;20046;-60
2021/12/14 09:34:59;;;;;;;207.18;80.13;;;;;;;;;;6220628;28;20070;-59
2021/12/14 09:37:59;;;;;;;204.73;79.82;;;;;;;;;;6216310;28;20128;-60
2021/12/14 09:41:05;;;;;;;215.48;85.78;;;;;;;;;;6216600;28;20045;-60
2021/12/14 09:44:10;;;;;;;218.23;86.95;;;;;;;;;;6211709;28;20074;-62
2021/12/14 09:47:18;;;;;;;198.23;78.13;;;;;;;;;;6216277;28;20136;-60
2021/12/14 09:50:25;;;;;;;230.23;82.82;;;;;;;;;;6208607;28;20046;-60
2021/12/14 09:53:27;;;;;;;214.57;84.20;;;;;;;;;;6211507;28;20128;-61
2021/12/14 09:56:37;;;;;;;213.98;82.43;;;;;;;;;;6220110;28;20081;-62
2021/12/14 09:59:38;;;;;;;215.02;88.07;;;;;;;;;;6215404;28;20054;-61
2021/12/14 10:02:41;;;;;;;242.57;88.13;;;;;;;;;;6218732;28;20042;-60
2021/12/14 10:05:58;;;;;;;229.57;85.00;;;;;;;;;;6205234;28;20307;-62
2021/12/14 10:09:06;;;;;;;236.40;84.53;;;;;;;;;;6197554;28;20493;-61
2021/12/14 10:12:57;;;;;;;240.43;88.97;;;;;;;;;;6201921;28;20404;-61
2021/12/14 10:15:50;;;;;;;225.38;89.57;;;;;;;;;;6208047;28;20116;-60
2021/12/14 10:19:13;;;;;;;226.35;86.18;;;;;;;;;;6209095;28;20136;-61
2021/12/14 10:22:28;;;;;;;254.75;102.68;;;;;;;;;;6207017;28;20077;-60
2021/12/14 10:25:28;;;;;;;228.45;86.53;;;;;;;;;;6207924;28;20041;-61
2021/12/14 10:28:32;;;;;;;229.35;90.65;;;;;;;;;;6210155;28;20046;-61
2021/12/14 10:31:53;;;;;;;210.63;84.05;;;;;;;;;;6208321;28;20050;-61
2021/12/14 10:34:58;;;;;;;218.60;81.57;;;;;;;;;;6205036;28;20205;-60
2021/12/14 10:38:13;;;;;;;214.00;79.55;;;;;;;;;;6209106;28;20136;-61
2021/12/14 10:44:43;;;;;;;174.32;65.72;;;;;;;;;;6205748;28;20049;-60
2021/12/14 10:47:44;;;;;;;184.95;68.15;;;;;;;;;;6205455;28;20058;-60
2021/12/14 10:50:46;;;;;;;201.55;75.22;;;;;;;;;;6207239;28;20117;-61
2021/12/14 10:53:48;;;;;;;;;;;;;;;;;;6206059;28;20049;-61
2021/12/14 10:56:56;;;;;;;193.43;73.10;;;;;;;;;;6204002;28;19937;-60
2021/12/14 10:59:58;;;;;;;180.20;66.95;;;;;;;;;;6205238;28;20096;-61
2021/12/14 11:03:03;;;;;;;167.05;63.50;;;;;;;;;;6203603;28;20115;-60
2021/12/14 11:06:10;;;;;;;152.02;62.08;;;;;;;;;;6205654;28;20096;-61
2021/12/14 11:12:29;;;;;;;149.45;61.53;;;;;;;;;;6216610;28;20436;-61
2021/12/14 11:15:36;;;;;;;162.05;60.97;;;;;;;;;;6214092;28;20054;-61
2021/12/14 11:18:36;;;;;;;129.13;55.08;;;;;;;;;;6218904;28;20104;-61
2021/12/14 11:21:37;;;;;;;139.90;53.15;;;;;;;;;;6218507;28;20054;-59
2021/12/14 11:24:39;;;;;;;137.70;55.58;;;;;;;;;;6210153;28;20046;-60
2021/12/14 11:27:44;;;;;;;138.15;56.08;;;;;;;;;;6210611;28;20141;-61
2021/12/14 11:30:53;;;;;;;142.35;56.35;;;;;;;;;;6210381;28;20050;-61
2021/12/14 11:34:29;;;;;;;133.45;56.28;;;;;;;;;;6198313;28;20080;-61
2021/12/14 11:37:34;;;;;;;118.32;51.38;;;;;;;;;;6199060;28;20093;-61
2021/12/14 11:40:34;;;;;;;125.07;53.03;;;;;;;;;;6199801;28;20042;-61
2021/12/14 11:43:35;;;;;;;125.10;53.13;;;;;;;;;;6203004;28;20706;-60
2021/12/14 11:47:11;;;;;;;129.23;54.97;;;;;;;;;;6205988;28;20180;-60
2021/12/14 11:50:27;;;;;;;140.40;65.03;;;;;;;;;;6201677;28;20046;-60
2021/12/14 11:53:27;;;;;;;134.77;55.42;;;;;;;;;;6204066;28;20137;-60
2021/12/14 11:56:31;;;;;;;119.60;50.58;;;;;;;;;;6213787;28;20489;-60
2021/12/14 11:59:32;;;;;;;122.07;49.10;;;;;;;;;;6217469;28;20052;-61
2021/12/14 12:02:32;;;;;;;129.00;54.90;;;;;;;;;;6215689;28;20046;-61
2021/12/14 12:05:35;;;;;;;119.72;53.97;;;;;;;;;;6209389;28;20073;-60
2021/12/14 12:12:03;;;;;;;109.38;44.78;;;;;;;;;;6200114;28;20047;-60
2021/12/14 12:15:19;;;;;;;109.07;42.08;;;;;;;;;;6204696;28;20041;-60
2021/12/14 12:18:19;;;;;;;112.65;48.33;;;;;;;;;;6203205;28;20594;-60
2021/12/14 12:21:28;;;;;;;121.53;48.83;;;;;;;;;;6202456;28;20137;-60
2021/12/14 12:24:36;;;;;;;123.28;50.45;;;;;;;;;;6201063;28;20046;-61
2021/12/14 12:27:38;;;;;;;117.43;47.47;;;;;;;;;;6205325;28;20072;-61
2021/12/14 12:30:55;;;;;;;130.05;48.63;;;;;;;;;;6202240;28;20125;-61
2021/12/14 12:33:58;;;;;;;123.85;48.70;;;;;;;;;;6201552;28;20081;-60
2021/12/14 12:36:59;;;;;;;117.35;47.58;;;;;;;;;;6202015;28;20046;-61
2021/12/14 12:40:00;;;;;;;125.05;47.58;;;;;;;;;;6204042;28;20060;-60
2021/12/14 12:43:47;;;;;;;124.95;49.17;;;;;;;;;;6200832;28;20061;-61
2021/12/14 12:46:47;;;;;;;134.75;51.97;;;;;;;;;;6191840;28;20053;-60
2021/12/14 12:49:54;;;;;;;337.73;119.07;;;;;;;;;;6205208;28;20045;-61
2021/12/14 12:52:56;;;;;;;550.03;198.23;;;;;;;;;;6206647;28;20054;-61
2021/12/14 12:56:13;;;;;;;229.35;89.18;;;;;;;;;;6200934;28;20080;-60
2021/12/14 12:59:40;;;;;;;136.07;51.08;;;;;;;;;;6199921;28;20125;-60
2021/12/14 13:03:09;;;;;;;123.47;49.33;;;;;;;;;;6207477;28;20049;-60
2021/12/14 13:06:16;;;;;;;113.28;45.35;;;;;;;;;;6203151;28;20081;-60
2021/12/14 13:09:17;;;;;;;116.40;44.78;;;;;;;;;;6208811;28;20136;-60
2021/12/14 13:12:38;;;;;;;107.78;45.72;;;;;;;;;;6213837;28;20042;-60
2021/12/14 13:15:47;;;;;;;107.03;42.33;;;;;;;;;;6213564;28;20069;-61
2021/12/14 13:19:09;;;;;;;103.53;41.40;;;;;;;;;;6215949;28;20054;-60
2021/12/14 13:22:10;;;;;;;95.93;38.97;;;;;;;;;;6211477;28;20096;-61
2021/12/14 13:25:11;;;;;;;107.13;44.33;;;;;;;;;;6207326;28;20096;-61
2021/12/14 13:28:13;;;;;;;119.35;48.60;;;;;;;;;;6205447;28;20097;-61
2021/12/14 13:31:26;;;;;;;110.28;47.40;;;;;;;;;;6202288;28;20068;-61
2021/12/14 13:34:27;;;;;;;;;;;;;;;;;;6201197;28;20056;-61
2021/12/14 13:37:40;;;;;;;125.05;50.53;;;;;;;;;;6201058;28;19976;-61
2021/12/14 13:40:45;;;;;;;128.40;53.35;;;;;;;;;;6204336;28;20054;-61
2021/12/14 13:43:45;;;;;;;137.25;53.13;;;;;;;;;;6202772;28;20056;-61
2021/12/14 13:46:46;;;;;;;136.85;55.47;;;;;;;;;;6202163;28;20049;-61
2021/12/14 13:49:47;;;;;;;138.45;54.90;;;;;;;;;;6206217;28;20412;-61
2021/12/14 13:52:48;;;;;;;160.63;66.65;;;;;;;;;;6207387;28;20050;-60
2021/12/14 13:55:51;;;;;;;126.40;52.75;;;;;;;;;;6202421;28;20050;-60
2021/12/14 13:58:53;;;;;;;122.32;46.47;;;;;;;;;;6208512;28;20053;-60
2021/12/14 14:01:54;;;;;;;;;;;;;;;;;;6209186;28;20137;-60
2021/12/14 14:04:56;;;;;;;108.93;41.28;;;;;;;;;;6203421;28;20372;-60
2021/12/14 14:08:06;;;;;;;113.50;45.08;;;;;;;;;;6201443;28;20046;-61
2021/12/14 14:11:20;;;;;;;139.75;52.13;;;;;;;;;;6206410;28;20058;-61
2021/12/14 14:14:28;;;;;;;133.27;49.45;;;;;;;;;;6205759;28;20137;-60
2021/12/14 14:17:29;;;;;;;127.15;44.75;;;;;;;;;;6208644;28;20739;-60
2021/12/14 14:20:35;;;;;;;207.30;82.22;;;;;;;;;;6210776;28;20136;-60
2021/12/14 14:23:43;;;;;;;177.57;78.05;;;;;;;;;;6206825;28;20157;-60
2021/12/14 14:26:44;;;;;;;146.88;57.28;;;;;;;;;;6204739;28;20077;-60
2021/12/14 14:29:48;;;;;;;147.98;59.90;;;;;;;;;;6210665;28;20125;-61
2021/12/14 14:33:11;;;;;;;142.85;53.80;;;;;;;;;;6207952;28;20574;-60
2021/12/14 14:36:24;;;;;;;133.70;51.38;;;;;;;;;;6203062;28;20058;-61
2021/12/14 14:39:26;;;;;;;135.07;48.63;;;;;;;;;;6206716;28;20189;-60
2021/12/14 14:42:33;;;;;;;167.83;65.43;;;;;;;;;;6200015;28;20041;-61
2021/12/14 14:45:34;;;;;;;194.52;74.95;;;;;;;;;;6206647;28;20145;-62
2021/12/14 14:48:34;;;;;;;151.23;62.47;;;;;;;;;;6207823;28;20049;-63
2021/12/14 14:51:44;;;;;;;135.52;56.92;;;;;;;;;;6202919;28;20057;-63
2021/12/14 14:54:50;;;;;;;129.63;51.40;;;;;;;;;;6203008;28;20038;-61
2021/12/14 14:58:04;;;;;;;126.78;49.63;;;;;;;;;;6199758;28;20118;-61
2021/12/14 15:01:08;;;;;;;121.70;49.80;;;;;;;;;;6207122;28;20045;-61
2021/12/14 15:04:08;;;;;;;142.50;59.17;;;;;;;;;;6217372;28;20073;-61
2021/12/14 15:07:09;;;;;;;132.40;52.75;;;;;;;;;;6205310;28;20486;-61
2021/12/14 15:10:12;;;;;;;145.68;57.78;;;;;;;;;;6199002;28;20053;-61
2021/12/14 15:13:43;;;;;;;132.80;52.88;;;;;;;;;;6200612;28;20057;-61
2021/12/14 15:16:59;;;;;;;150.60;53.05;;;;;;;;;;6197182;28;20277;-61
2021/12/14 15:19:59;;;;;;;139.40;51.08;;;;;;;;;;6199688;28;20638;-60
2021/12/14 15:23:03;;;;;;;145.40;49.85;;;;;;;;;;6200156;28;20082;-61
2021/12/14 15:26:12;;;;;;;144.35;48.60;;;;;;;;;;6192450;28;20057;-60
2021/12/14 15:29:29;;;;;;;148.63;51.78;;;;;;;;;;6204474;28;20056;-59
2021/12/14 15:32:33;;;;;;;141.35;51.05;;;;;;;;;;6203220;28;20493;-63
2021/12/14 15:35:36;;;;;;;158.98;57.03;;;;;;;;;;6200763;28;20445;-63
2021/12/14 15:38:57;;;;;;;156.07;53.95;;;;;;;;;;6204436;28;20046;-63
2021/12/14 15:42:18;;;;;;;157.70;58.30;;;;;;;;;;6204483;28;20049;-61
2021/12/14 15:45:22;;;;;;;175.85;61.55;;;;;;;;;;6206627;28;20413;-61
2021/12/14 15:48:45;;;;;;;170.10;61.28;;;;;;;;;;6208107;28;20041;-61
2021/12/14 15:51:56;;;;;;;150.80;49.07;;;;;;;;;;6204127;28;20046;-61
2021/12/14 15:54:56;;;;;;;147.85;47.10;;;;;;;;;;6197365;28;20065;-61
2021/12/14 15:57:57;;;;;;;147.07;47.33;;;;;;;;;;6201362;28;20132;-61
2021/12/14 16:01:05;;;;;;;130.30;51.40;;;;;;;;;;6206068;28;20571;-60
2021/12/14 16:04:10;;;;;;;134.52;48.47;;;;;;;;;;6206425;28;20058;-61
2021/12/14 16:07:13;;;;;;;132.93;46.40;;;;;;;;;;6202981;28;20056;-60
2021/12/14 16:10:22;;;;;;;143.40;51.00;;;;;;;;;;6201277;28;20042;-61
2021/12/14 16:16:45;;;;;;;142.45;51.05;;;;;;;;;;6207647;28;20047;-61
2021/12/14 16:19:47;;;;;;;165.40;64.40;;;;;;;;;;6201111;28;20605;-61
2021/12/14 16:22:48;;;;;;;158.65;60.92;;;;;;;;;;6214916;28;20142;-61
2021/12/14 16:25:55;;;;;;;162.40;65.85;;;;;;;;;;6212071;28;20077;-62
2021/12/14 16:29:03;;;;;;;153.00;60.70;;;;;;;;;;6211663;28;20054;-61
2021/12/14 16:32:06;;;;;;;156.75;62.55;;;;;;;;;;6212312;28;20078;-62
2021/12/14 16:35:07;;;;;;;148.20;53.67;;;;;;;;;;6214369;28;20046;-60
2021/12/14 16:38:13;;;;;;;139.27;51.40;;;;;;;;;;6217062;28;20077;-60
2021/12/14 16:41:23;;;;;;;137.05;48.33;;;;;;;;;;6209691;28;20137;-61
2021/12/14 16:44:30;;;;;;;159.98;63.08;;;;;;;;;;6198760;28;20409;-60
2021/12/14 16:47:35;;;;;;;143.90;56.00;;;;;;;;;;6205976;28;20095;-60
2021/12/14 16:50:36;;;;;;;143.60;53.80;;;;;;;;;;6210943;28;20073;-61
2021/12/14 16:54:09;;;;;;;144.18;56.20;;;;;;;;;;6208212;28;20072;-61
2021/12/14 16:57:15;;;;;;;144.15;54.88;;;;;;;;;;6195160;28;20046;-60
2021/12/14 17:00:23;;;;;;;152.75;59.55;;;;;;;;;;6209953;28;20046;-61
2021/12/14 17:03:24;;;;;;;161.88;58.88;;;;;;;;;;6214244;28;20145;-61
2021/12/14 17:06:30;;;;;;;171.02;66.63;;;;;;;;;;6214556;28;20046;-61
2021/12/14 17:09:32;;;;;;;231.88;88.95;;;;;;;;;;6213815;28;20493;-60
2021/12/14 17:12:33;;;;;;;277.40;109.80;;;;;;;;;;6210166;28;20196;-61
2021/12/14 17:15:37;;;;;;;240.02;100.80;;;;;;;;;;6213065;28;20053;-60
2021/12/14 17:18:41;;;;;;;245.57;98.57;;;;;;;;;;6213937;28;20050;-60
2021/12/14 17:21:47;;;;;;;286.55;113.38;;;;;;;;;;6205256;28;20148;-60
2021/12/14 17:24:55;;;;;;;314.70;126.72;;;;;;;;;;6203635;28;20061;-63
2021/12/14 17:27:56;;;;;;;289.05;120.82;;;;;;;;;;6196024;28;20172;-61
2021/12/14 17:30:57;;;;;;;209.18;78.00;;;;;;;;;;6203281;28;20416;-61
2021/12/14 17:34:01;;;;;;;220.50;92.03;;;;;;;;;;6207228;28;20452;-61
2021/12/14 17:37:06;;;;;;;221.82;92.32;;;;;;;;;;6202915;28;20536;-61
2021/12/14 17:40:22;;;;;;;204.88;86.03;;;;;;;;;;6205380;28;20138;-60
2021/12/14 17:43:22;;;;;;;187.60;78.05;;;;;;;;;;6207938;28;20200;-59
2021/12/14 17:46:23;;;;;;;238.35;99.60;;;;;;;;;;6203469;28;20109;-60
2021/12/14 17:49:24;;;;;;;222.02;96.95;;;;;;;;;;6202850;28;20057;-59
2021/12/14 17:52:32;;;;;;;243.23;102.85;;;;;;;;;;6205649;28;20068;-60
2021/12/14 17:55:40;;;;;;;243.70;108.30;;;;;;;;;;6204997;28;20058;-59
2021/12/14 17:58:42;;;;;;;288.30;122.35;;;;;;;;;;6206876;28;20064;-60
2021/12/14 18:01:53;;;;;;;343.92;142.98;;;;;;;;;;6205149;28;20089;-59
2021/12/14 18:04:54;;;;;;;319.05;142.02;;;;;;;;;;6204804;28;20260;-61
2021/12/14 18:08:15;;;;;;;380.92;164.00;;;;;;;;;;6207813;28;20406;-60
2021/12/14 18:11:20;;;;;;;380.05;165.30;;;;;;;;;;6207773;28;20132;-59
2021/12/14 18:14:26;;;;;;;392.02;168.90;;;;;;;;;;6206882;28;20841;-60
2021/12/14 18:17:34;;;;;;;399.33;168.55;;;;;;;;;;6206012;28;20387;-60
2021/12/14 18:20:35;;;;;;;383.65;168.13;;;;;;;;;;6206011;28;20831;-61
2021/12/14 18:23:36;;;;;;;341.83;145.70;;;;;;;;;;6205032;28;20054;-60
2021/12/14 18:26:41;;;;;;;310.73;139.90;;;;;;;;;;6204262;28;20054;-60